Time;durP1;ratioP1;P1;durP2;ratioP2;P2;SDS_P1;SDS_P2;PMS_P1;PMS_P2;Temp;Humidity;BMP_temperature;BMP_pressure;BME280_temperature;BME280_humidity;BME280_pressure;Samples;Min_cycle;Max_cycle;Signal;HPM_P1;HPM_P2
2021/12/27 18:59:43;;;;;;;77.38;36.25;;;0.30;99.90;;;;;;2114953;27;20723;-69
2021/12/27 19:00:44;;;;;;;91.20;39.85;;;0.10;99.90;;;;;;2109965;28;20629;-71
2021/12/27 19:01:46;;;;;;;87.07;40.50;;;0.10;99.90;;;;;;2113673;28;20095;-68
2021/12/27 19:02:47;;;;;;;81.20;38.72;;;0.10;99.90;;;;;;2098795;28;20025;-72
2021/12/27 19:03:48;;;;;;;116.22;48.90;;;0.10;99.90;;;;;;2096057;28;20040;-69
2021/12/27 19:04:48;;;;;;;73.63;36.88;;;0.20;99.90;;;;;;2105321;28;20059;-69
2021/12/27 19:05:49;;;;;;;78.82;38.60;;;0.10;99.90;;;;;;2105967;28;20090;-67
2021/12/27 19:06:50;;;;;;;76.07;38.95;;;0.20;99.90;;;;;;2106231;28;20039;-68
2021/12/27 19:07:51;;;;;;;88.00;41.70;;;0.20;99.90;;;;;;2105879;28;20051;-71
2021/12/27 19:08:52;;;;;;;85.68;40.97;;;0.20;99.90;;;;;;2096085;28;20032;-68
2021/12/27 19:09:53;;;;;;;119.57;48.28;;;0.20;99.90;;;;;;2096042;28;20203;-69
2021/12/27 19:10:54;;;;;;;87.25;42.40;;;0.20;99.90;;;;;;2087980;28;20024;-71
2021/12/27 19:11:55;;;;;;;91.32;42.90;;;0.20;99.90;;;;;;2095801;28;20020;-71
2021/12/27 19:12:55;;;;;;;78.65;40.53;;;0.30;99.90;;;;;;2104883;28;20452;-72
2021/12/27 19:13:56;;;;;;;70.93;36.53;;;0.30;99.90;;;;;;2087507;28;20033;-71
2021/12/27 19:14:57;;;;;;;64.25;34.97;;;0.30;99.90;;;;;;2087761;28;20032;-69
2021/12/27 19:15:58;;;;;;;67.93;35.85;;;0.30;99.90;;;;;;2087360;28;20041;-75
2021/12/27 19:16:59;;;;;;;73.15;37.55;;;0.20;99.90;;;;;;2096193;28;20035;-70
2021/12/27 19:18:00;;;;;;;72.88;38.22;;;0.20;99.90;;;;;;2095746;28;20024;-69
2021/12/27 19:19:01;;;;;;;68.30;36.63;;;0.20;99.90;;;;;;2105221;28;20040;-70
2021/12/27 19:20:03;;;;;;;65.10;35.60;;;0.20;99.90;;;;;;2104932;28;20104;-70
2021/12/27 19:21:05;;;;;;;69.65;37.65;;;0.20;99.90;;;;;;2087531;28;20100;-71
2021/12/27 19:22:06;;;;;;;83.35;42.35;;;0.20;99.90;;;;;;2079544;28;20037;-72
2021/12/27 19:23:07;;;;;;;77.45;38.65;;;0.20;99.90;;;;;;2088032;28;20535;-70
2021/12/27 19:24:08;;;;;;;78.03;39.22;;;0.20;99.90;;;;;;2095805;28;20068;-69
2021/12/27 19:25:09;;;;;;;107.57;50.63;;;0.20;99.90;;;;;;2105714;28;20024;-69
2021/12/27 19:26:10;;;;;;;72.10;38.97;;;0.20;99.90;;;;;;2097355;28;20021;-72
2021/12/27 19:27:11;;;;;;;93.82;45.15;;;0.20;99.90;;;;;;2097112;28;20439;-69
2021/12/27 19:28:13;;;;;;;72.90;38.55;;;0.30;99.90;;;;;;2088686;28;20588;-71
2021/12/27 19:29:16;;;;;;;71.07;36.90;;;0.30;99.90;;;;;;2095999;28;20028;-71
2021/12/27 19:30:18;;;;;;;124.28;56.30;;;0.30;99.90;;;;;;2087789;28;20032;-70
2021/12/27 19:31:19;;;;;;;71.00;38.50;;;0.30;99.90;;;;;;2087414;28;20428;-70
2021/12/27 19:32:20;;;;;;;73.18;38.53;;;0.30;99.90;;;;;;2087175;28;20125;-70
2021/12/27 19:33:20;;;;;;;80.22;42.28;;;0.30;99.90;;;;;;2095223;28;20106;-72
2021/12/27 19:34:21;;;;;;;85.05;44.03;;;0.30;99.90;;;;;;2087268;28;20489;-71
2021/12/27 19:35:23;;;;;;;119.53;58.38;;;0.30;99.90;;;;;;2095658;28;20032;-71
2021/12/27 19:36:23;;;;;;;118.00;61.47;;;0.30;99.90;;;;;;2087355;28;20563;-70
2021/12/27 19:37:24;;;;;;;92.78;48.35;;;0.30;99.90;;;;;;2095069;28;20037;-71
2021/12/27 19:38:25;;;;;;;94.47;52.58;;;0.30;99.90;;;;;;2087151;28;20067;-70
2021/12/27 19:39:28;;;;;;;80.28;43.38;;;0.30;99.90;;;;;;2095848;28;20053;-71
2021/12/27 19:40:34;;;;;;;75.68;41.22;;;0.30;99.90;;;;;;2095994;28;20059;-71
2021/12/27 19:41:35;;;;;;;85.25;48.35;;;0.30;99.90;;;;;;2096122;28;20021;-70
2021/12/27 19:42:36;;;;;;;97.78;53.75;;;0.30;99.90;;;;;;2087353;28;20500;-69
2021/12/27 19:43:37;;;;;;;88.60;48.45;;;0.30;99.90;;;;;;2087418;28;20025;-71
2021/12/27 19:44:38;;;;;;;83.97;45.78;;;0.30;99.90;;;;;;2096039;28;20032;-68
2021/12/27 19:45:39;;;;;;;85.32;47.03;;;0.30;99.90;;;;;;2087339;28;20033;-69
2021/12/27 19:46:40;;;;;;;70.40;39.78;;;0.30;99.90;;;;;;2088277;28;20481;-71
2021/12/27 19:47:41;;;;;;;71.38;38.45;;;0.30;99.90;;;;;;2095366;28;20025;-71
2021/12/27 19:48:42;;;;;;;70.85;39.40;;;0.30;99.90;;;;;;2088142;28;20033;-70
2021/12/27 19:49:43;;;;;;;71.80;38.13;;;0.30;99.90;;;;;;2087540;28;20044;-69
2021/12/27 19:50:46;;;;;;;66.78;37.65;;;0.30;99.90;;;;;;2087398;28;20064;-70
2021/12/27 19:51:48;;;;;;;68.47;37.03;;;0.30;99.90;;;;;;2104247;28;20035;-70
2021/12/27 19:52:50;;;;;;;66.32;36.70;;;0.30;99.90;;;;;;2106106;28;20466;-71
2021/12/27 19:53:53;;;;;;;66.22;36.70;;;0.30;99.90;;;;;;2095461;28;20021;-71
2021/12/27 19:55:09;;;;;;;66.18;37.25;;;0.30;99.90;;;;;;2096842;28;20021;-70
2021/12/27 19:56:13;;;;;;;68.88;37.33;;;0.30;99.90;;;;;;2112316;28;20513;-70
2021/12/27 19:57:14;;;;;;;68.50;37.80;;;0.30;99.90;;;;;;2102878;28;20024;-71
2021/12/27 19:58:14;;;;;;;72.07;38.17;;;0.20;99.90;;;;;;2102888;28;20028;-70
2021/12/27 19:59:15;;;;;;;68.65;37.22;;;0.20;99.90;;;;;;2112264;28;20066;-70
2021/12/27 20:00:17;;;;;;;70.15;38.47;;;0.20;99.90;;;;;;2103426;28;20111;-69
2021/12/27 20:01:19;;;;;;;72.60;39.38;;;0.10;99.90;;;;;;2104033;28;20423;-70
2021/12/27 20:02:19;;;;;;;69.00;37.63;;;0.20;99.90;;;;;;2103193;28;20024;-71
2021/12/27 20:03:23;;;;;;;72.53;38.85;;;0.20;99.90;;;;;;2103927;28;20056;-70
2021/12/27 20:04:25;;;;;;;71.00;39.10;;;0.20;99.90;;;;;;2103689;28;20050;-70
2021/12/27 20:05:25;;;;;;;70.28;38.35;;;0.20;99.90;;;;;;2103180;28;20024;-69
2021/12/27 20:06:27;;;;;;;69.22;38.00;;;0.20;99.90;;;;;;2111784;28;20073;-70
2021/12/27 20:07:29;;;;;;;72.80;39.72;;;0.20;99.90;;;;;;2103169;28;20035;-68
2021/12/27 20:08:30;;;;;;;70.22;37.88;;;0.20;99.90;;;;;;2095392;28;20456;-73
2021/12/27 20:09:33;;;;;;;69.15;38.03;;;0.10;99.90;;;;;;2096437;28;20032;-69
2021/12/27 20:10:34;;;;;;;68.20;37.95;;;0.10;99.90;;;;;;2084278;28;20025;-71
2021/12/27 20:11:35;;;;;;;67.03;37.15;;;0.20;99.90;;;;;;2089645;28;20064;-69
2021/12/27 20:12:36;;;;;;;65.43;36.53;;;0.20;99.90;;;;;;2098213;28;20047;-69
2021/12/27 20:13:37;;;;;;;64.93;36.80;;;0.20;99.90;;;;;;2089278;28;20109;-72
2021/12/27 20:14:38;;;;;;;66.43;37.25;;;0.20;99.90;;;;;;2089665;28;20110;-70
2021/12/27 20:15:42;;;;;;;65.05;36.28;;;0.20;99.90;;;;;;2090001;28;20432;-71
2021/12/27 20:16:43;;;;;;;64.32;35.45;;;0.20;99.90;;;;;;2090083;28;20024;-70
2021/12/27 20:17:44;;;;;;;63.90;35.95;;;0.20;99.90;;;;;;2088847;28;20498;-69
2021/12/27 20:18:44;;;;;;;64.28;36.75;;;0.20;99.90;;;;;;2089603;28;20056;-70
2021/12/27 20:19:45;;;;;;;67.82;37.53;;;0.10;99.90;;;;;;2097787;28;20016;-72
2021/12/27 20:20:46;;;;;;;64.75;36.47;;;0.20;99.90;;;;;;2080915;28;20088;-71
2021/12/27 20:21:49;;;;;;;68.93;38.58;;;0.20;99.90;;;;;;2080963;28;20037;-71
2021/12/27 20:22:54;;;;;;;63.85;36.45;;;0.20;99.90;;;;;;2097648;28;20025;-70
2021/12/27 20:23:55;;;;;;;68.22;37.15;;;0.20;99.90;;;;;;2097431;28;20024;-69
2021/12/27 20:24:58;;;;;;;66.00;37.08;;;0.20;99.90;;;;;;2089757;28;20036;-70
2021/12/27 20:26:00;;;;;;;65.03;36.42;;;0.20;99.90;;;;;;2081309;28;20428;-70
2021/12/27 20:27:04;;;;;;;67.53;36.33;;;0.20;99.90;;;;;;2089543;28;20025;-69
2021/12/27 20:28:07;;;;;;;63.40;35.13;;;0.20;99.90;;;;;;2096886;28;20035;-70
2021/12/27 20:29:11;;;;;;;63.33;35.88;;;0.20;99.90;;;;;;2098130;28;20385;-70
2021/12/27 20:30:12;;;;;;;62.65;33.90;;;0.20;99.90;;;;;;2097780;28;20039;-70
2021/12/27 20:31:13;;;;;;;65.47;35.10;;;0.20;99.90;;;;;;2089686;28;20068;-70
2021/12/27 20:32:23;;;;;;;66.40;35.50;;;0.20;99.90;;;;;;2097422;28;20032;-69
2021/12/27 20:33:23;;;;;;;62.60;34.50;;;0.20;99.90;;;;;;2106632;28;20105;-70
2021/12/27 20:34:24;;;;;;;62.70;34.53;;;0.20;99.90;;;;;;2106684;28;20317;-71
2021/12/27 20:35:25;;;;;;;66.00;38.08;;;0.20;99.90;;;;;;2089556;28;20040;-68
2021/12/27 20:36:25;;;;;;;65.20;35.78;;;0.20;99.90;;;;;;2089550;28;20040;-69
2021/12/27 20:37:27;;;;;;;60.28;33.97;;;0.20;99.90;;;;;;2106232;28;20035;-70
2021/12/27 20:38:27;;;;;;;59.90;34.40;;;0.10;99.90;;;;;;2097547;28;20083;-69
2021/12/27 20:39:28;;;;;;;64.55;35.83;;;0.20;99.90;;;;;;2089326;28;20049;-69
2021/12/27 20:40:29;;;;;;;65.80;35.33;;;0.10;99.90;;;;;;2089709;28;20414;-69
2021/12/27 20:41:33;;;;;;;64.15;35.33;;;0.20;99.90;;;;;;2097332;28;20535;-69
2021/12/27 20:42:37;;;;;;;62.25;35.50;;;0.20;99.90;;;;;;2097153;28;20111;-69
2021/12/27 20:43:38;;;;;;;68.63;36.58;;;0.20;99.90;;;;;;2098683;28;20024;-69
2021/12/27 20:44:39;;;;;;;67.03;36.28;;;0.20;99.90;;;;;;2097697;28;20033;-69
2021/12/27 20:45:42;;;;;;;65.53;35.35;;;0.20;99.90;;;;;;2097620;28;20470;-72
2021/12/27 20:46:43;;;;;;;66.75;36.70;;;0.20;99.90;;;;;;2106587;28;20024;-70
2021/12/27 20:47:46;;;;;;;66.82;36.22;;;0.20;99.90;;;;;;2107105;28;20039;-71
2021/12/27 20:48:49;;;;;;;68.05;36.10;;;0.20;99.90;;;;;;2098550;28;20036;-71
2021/12/27 20:49:50;;;;;;;71.50;36.95;;;0.20;99.90;;;;;;2089987;28;20033;-70
2021/12/27 20:50:51;;;;;;;71.80;36.53;;;0.20;99.90;;;;;;2098365;28;20028;-70
2021/12/27 20:51:53;;;;;;;72.50;36.63;;;0.20;99.90;;;;;;2107523;28;20073;-72
2021/12/27 20:53:00;;;;;;;67.57;34.85;;;0.20;99.90;;;;;;2107224;28;20491;-69
2021/12/27 20:54:01;;;;;;;68.15;35.67;;;0.20;99.90;;;;;;2097966;28;20028;-71
2021/12/27 20:55:04;;;;;;;67.07;35.58;;;0.20;99.90;;;;;;2097971;28;20044;-71
2021/12/27 20:56:10;;;;;;;69.53;36.90;;;0.20;99.90;;;;;;2089643;28;20033;-70
2021/12/27 20:57:10;;;;;;;73.18;36.80;;;0.20;99.90;;;;;;2081701;28;20036;-69
2021/12/27 20:58:12;;;;;;;73.20;36.53;;;0.20;99.90;;;;;;2097651;28;20487;-69
2021/12/27 20:59:13;;;;;;;92.57;41.72;;;0.10;99.90;;;;;;2097176;28;20480;-70
2021/12/27 21:00:27;;;;;;;79.00;39.75;;;0.20;99.90;;;;;;2089138;28;20021;-71
2021/12/27 21:01:28;;;;;;;75.35;36.95;;;0.20;99.90;;;;;;2099053;28;20039;-72
2021/12/27 21:02:30;;;;;;;68.00;36.78;;;0.20;99.90;;;;;;2106747;28;20467;-71
2021/12/27 21:03:32;;;;;;;79.63;40.30;;;0.10;99.90;;;;;;2106553;28;20391;-72
2021/12/27 21:04:32;;;;;;;72.35;38.70;;;0.20;99.90;;;;;;2097940;28;20036;-70
2021/12/27 21:05:37;;;;;;;99.60;44.70;;;0.20;99.90;;;;;;2097156;28;20028;-69
2021/12/27 21:06:39;;;;;;;76.85;38.28;;;0.20;99.90;;;;;;2106433;28;20529;-68
2021/12/27 21:07:39;;;;;;;68.97;36.65;;;0.20;99.90;;;;;;2096993;28;20066;-70
2021/12/27 21:08:40;;;;;;;68.95;37.40;;;0.20;99.90;;;;;;2089055;28;20067;-69
2021/12/27 21:09:40;;;;;;;73.15;37.58;;;0.20;99.90;;;;;;2089773;28;20033;-72
2021/12/27 21:10:45;;;;;;;74.72;39.55;;;0.20;99.90;;;;;;2106565;28;20024;-71
2021/12/27 21:11:45;;;;;;;83.60;40.30;;;0.20;99.90;;;;;;2106457;28;20402;-70
2021/12/27 21:12:47;;;;;;;74.57;38.92;;;0.20;99.90;;;;;;2105840;28;20036;-70
2021/12/27 21:13:47;;;;;;;85.90;41.22;;;0.20;99.90;;;;;;2106616;28;20425;-69
2021/12/27 21:14:48;;;;;;;80.15;39.38;;;0.20;99.90;;;;;;2106541;28;20028;-69
2021/12/27 21:15:49;;;;;;;72.97;38.00;;;0.20;99.90;;;;;;2097872;28;20520;-70
2021/12/27 21:16:56;;;;;;;73.20;37.53;;;0.20;99.90;;;;;;2098359;28;20408;-70
2021/12/27 21:17:57;;;;;;;75.47;38.45;;;0.20;99.90;;;;;;2089379;28;20091;-69
2021/12/27 21:18:58;;;;;;;69.85;36.80;;;0.20;99.90;;;;;;2089354;28;20098;-68
2021/12/27 21:19:59;;;;;;;78.57;39.85;;;0.20;99.90;;;;;;2097989;28;20036;-72
2021/12/27 21:21:01;;;;;;;86.47;41.55;;;0.20;99.90;;;;;;2097711;28;20017;-68
2021/12/27 21:22:02;;;;;;;82.22;40.10;;;0.20;99.90;;;;;;2097042;28;20024;-69
2021/12/27 21:23:03;;;;;;;80.82;38.92;;;0.20;99.90;;;;;;2097028;28;20483;-68
2021/12/27 21:24:04;;;;;;;76.95;38.53;;;0.30;99.90;;;;;;2102694;28;20868;-68
2021/12/27 21:25:06;;;;;;;70.38;36.63;;;0.20;99.90;;;;;;2095593;28;20066;-68
2021/12/27 21:26:07;;;;;;;77.13;38.90;;;0.20;99.90;;;;;;2080700;28;20172;-67
2021/12/27 21:27:07;;;;;;;98.05;45.53;;;0.20;99.90;;;;;;2089212;28;20079;-69
2021/12/27 21:28:17;;;;;;;77.05;39.50;;;0.20;99.90;;;;;;2097569;28;20024;-68
2021/12/27 21:29:20;;;;;;;73.13;38.20;;;0.30;99.90;;;;;;2098592;28;20597;-70
2021/12/27 21:30:21;;;;;;;69.43;36.70;;;0.30;99.90;;;;;;2106921;28;20032;-69
2021/12/27 21:31:22;;;;;;;69.03;36.55;;;0.30;99.90;;;;;;2097429;28;20025;-71
2021/12/27 21:32:23;;;;;;;74.93;37.75;;;0.30;99.90;;;;;;2097096;28;20040;-69
2021/12/27 21:33:24;;;;;;;72.57;37.88;;;0.30;99.90;;;;;;2088911;28;20025;-70
2021/12/27 21:34:28;;;;;;;86.78;41.83;;;0.30;99.90;;;;;;2093170;28;20028;-68
2021/12/27 21:35:29;;;;;;;69.20;37.50;;;0.30;99.90;;;;;;2101599;28;20024;-67
2021/12/27 21:36:30;;;;;;;67.15;36.83;;;0.30;99.90;;;;;;2098508;28;20020;-69
2021/12/27 21:37:30;;;;;;;65.68;35.63;;;0.30;99.90;;;;;;2081582;28;20030;-67
2021/12/27 21:38:34;;;;;;;73.30;38.28;;;0.30;99.90;;;;;;2072623;28;20446;-69
2021/12/27 21:39:36;;;;;;;73.28;37.20;;;0.30;99.90;;;;;;2098995;28;20032;-67
2021/12/27 21:40:36;;;;;;;66.82;35.65;;;0.30;99.90;;;;;;2089701;28;20020;-70
2021/12/27 21:41:38;;;;;;;66.95;35.10;;;0.30;99.90;;;;;;2091681;28;20021;-71
2021/12/27 21:42:46;;;;;;;65.25;35.78;;;0.20;99.90;;;;;;2081060;28;20748;-69
2021/12/27 21:43:47;;;;;;;76.45;39.92;;;0.20;99.90;;;;;;2081308;28;20044;-69
2021/12/27 21:44:49;;;;;;;75.00;39.65;;;0.30;99.90;;;;;;2095222;28;20118;-67
2021/12/27 21:45:50;;;;;;;74.65;39.33;;;0.30;99.90;;;;;;2102524;28;20199;-69
2021/12/27 21:46:51;;;;;;;68.85;37.60;;;0.30;99.90;;;;;;2087780;28;20025;-70
2021/12/27 21:47:54;;;;;;;66.47;36.25;;;0.30;99.90;;;;;;2083645;28;20099;-72
2021/12/27 21:48:54;;;;;;;64.38;34.78;;;0.30;99.90;;;;;;2097001;28;20108;-69
2021/12/27 21:49:57;;;;;;;64.57;34.83;;;0.30;99.90;;;;;;2094932;28;20036;-68
2021/12/27 21:50:57;;;;;;;63.13;34.78;;;0.30;99.90;;;;;;2096758;28;20079;-69
2021/12/27 21:51:59;;;;;;;63.00;35.35;;;0.20;99.90;;;;;;2100781;28;20078;-69
2021/12/27 21:53:01;;;;;;;64.90;35.22;;;0.20;99.90;;;;;;2096322;28;20028;-68
2021/12/27 21:54:05;;;;;;;72.53;39.22;;;0.20;99.90;;;;;;2086390;28;20029;-69
2021/12/27 21:55:06;;;;;;;66.07;36.40;;;0.20;99.90;;;;;;2088695;28;20519;-68
2021/12/27 21:56:07;;;;;;;74.80;40.65;;;0.20;99.90;;;;;;2096654;28;20078;-66
2021/12/27 21:57:09;;;;;;;66.55;36.28;;;0.20;99.90;;;;;;2097710;28;20434;-69
2021/12/27 21:58:13;;;;;;;65.13;35.13;;;0.20;99.90;;;;;;2100130;28;20464;-69
2021/12/27 21:59:20;;;;;;;67.13;36.08;;;0.20;99.90;;;;;;2106298;28;20035;-69
2021/12/27 22:00:24;;;;;;;69.90;35.35;;;0.20;99.90;;;;;;2104873;28;20034;-70
2021/12/27 22:01:24;;;;;;;64.75;35.55;;;0.30;99.90;;;;;;2098965;28;20046;-69
2021/12/27 22:02:28;;;;;;;65.13;35.17;;;0.30;99.90;;;;;;2083474;28;20476;-69
2021/12/27 22:03:29;;;;;;;72.10;37.65;;;0.30;99.90;;;;;;2099422;28;20020;-70
2021/12/27 22:04:30;;;;;;;66.97;35.80;;;0.30;99.90;;;;;;2101038;28;20465;-69
2021/12/27 22:05:34;;;;;;;70.93;35.53;;;0.20;99.90;;;;;;2098241;28;20020;-70
2021/12/27 22:06:35;;;;;;;65.20;35.88;;;0.30;99.90;;;;;;2093419;28;20020;-70
2021/12/27 22:07:36;;;;;;;69.38;37.17;;;0.30;99.90;;;;;;2097588;28;20863;-68
2021/12/27 22:08:40;;;;;;;70.45;36.97;;;0.30;99.90;;;;;;2085796;28;20445;-71
2021/12/27 22:09:41;;;;;;;73.13;39.47;;;0.30;99.90;;;;;;2089416;28;20036;-69
2021/12/27 22:10:47;;;;;;;72.60;39.50;;;0.30;99.90;;;;;;2088334;28;20029;-70
2021/12/27 22:11:51;;;;;;;69.38;38.05;;;0.30;99.90;;;;;;2097032;28;20024;-69
2021/12/27 22:13:02;;;;;;;66.32;36.85;;;0.30;99.90;;;;;;2089288;28;20033;-69
2021/12/27 22:14:08;;;;;;;66.20;35.95;;;0.30;99.90;;;;;;2096460;28;20808;-71
2021/12/27 22:15:11;;;;;;;63.78;34.15;;;0.30;99.90;;;;;;2089358;28;20052;-69
2021/12/27 22:16:12;;;;;;;62.33;33.90;;;0.30;99.90;;;;;;2089728;28;20103;-71
2021/12/27 22:17:13;;;;;;;71.82;37.42;;;0.30;99.90;;;;;;2087094;28;20037;-67
2021/12/27 22:18:14;;;;;;;65.60;36.80;;;0.30;99.90;;;;;;2081701;28;20034;-68
2021/12/27 22:19:15;;;;;;;71.63;36.42;;;0.30;99.90;;;;;;2102529;28;20035;-68
2021/12/27 22:20:16;;;;;;;66.05;35.33;;;0.30;99.90;;;;;;2097005;28;20036;-67
2021/12/27 22:21:17;;;;;;;63.78;33.53;;;0.30;99.90;;;;;;2080395;28;20108;-70
2021/12/27 22:22:18;;;;;;;62.72;34.78;;;0.30;99.90;;;;;;2090302;28;20071;-68
2021/12/27 22:23:18;;;;;;;67.47;36.05;;;0.30;99.90;;;;;;2104844;28;20024;-69
2021/12/27 22:24:19;;;;;;;64.32;34.97;;;0.30;99.90;;;;;;2090289;28;20029;-68
2021/12/27 22:25:20;;;;;;;64.05;34.28;;;0.30;99.90;;;;;;2085147;28;20045;-68
2021/12/27 22:26:20;;;;;;;66.05;35.40;;;0.30;99.90;;;;;;2082072;28;20061;-69
2021/12/27 22:27:21;;;;;;;66.25;35.10;;;0.30;99.90;;;;;;2076158;28;20478;-69
2021/12/27 22:28:22;;;;;;;61.08;34.72;;;0.30;99.90;;;;;;2088107;28;20527;-68
2021/12/27 22:29:23;;;;;;;59.65;34.13;;;0.30;99.90;;;;;;2087270;28;20479;-69
2021/12/27 22:30:24;;;;;;;66.68;36.22;;;0.30;99.90;;;;;;2091212;28;20044;-68
2021/12/27 22:31:25;;;;;;;62.13;33.88;;;0.30;99.90;;;;;;2092342;28;20056;-67
2021/12/27 22:32:26;;;;;;;66.60;36.28;;;0.30;99.90;;;;;;2083502;28;20119;-69
2021/12/27 22:33:27;;;;;;;67.45;35.92;;;0.30;99.90;;;;;;2084467;28;20025;-71
2021/12/27 22:34:27;;;;;;;63.28;34.67;;;0.30;99.90;;;;;;2092107;28;20028;-67
2021/12/27 22:35:29;;;;;;;66.13;36.00;;;0.30;99.90;;;;;;2092769;28;20029;-69
2021/12/27 22:36:30;;;;;;;64.13;35.28;;;0.30;99.90;;;;;;2096879;28;20033;-68
2021/12/27 22:37:30;;;;;;;61.13;33.38;;;0.20;99.90;;;;;;2104288;28;20028;-68
2021/12/27 22:38:32;;;;;;;64.07;34.95;;;0.20;99.90;;;;;;2097044;28;20423;-69
2021/12/27 22:39:33;;;;;;;62.88;33.75;;;0.30;99.90;;;;;;2096432;28;20029;-69
2021/12/27 22:40:35;;;;;;;62.10;32.95;;;0.30;99.90;;;;;;2092526;28;20024;-67
2021/12/27 22:41:36;;;;;;;62.85;34.53;;;0.20;99.90;;;;;;2090915;28;20453;-69
2021/12/27 22:42:37;;;;;;;65.45;35.20;;;0.20;99.90;;;;;;2101545;28;20024;-68
2021/12/27 22:43:38;;;;;;;65.55;34.72;;;0.20;99.90;;;;;;2104450;28;20103;-68
2021/12/27 22:44:39;;;;;;;66.03;34.88;;;0.20;99.90;;;;;;2093366;28;20013;-69
2021/12/27 22:45:39;;;;;;;61.63;34.83;;;0.30;99.90;;;;;;2082479;28;20033;-70
2021/12/27 22:46:42;;;;;;;67.75;36.50;;;0.20;99.90;;;;;;2085323;28;20435;-67
2021/12/27 22:47:46;;;;;;;67.00;35.85;;;0.20;99.90;;;;;;2072995;28;20478;-68
2021/12/27 22:48:46;;;;;;;68.63;36.25;;;0.20;99.90;;;;;;2089457;28;20021;-68
2021/12/27 22:49:48;;;;;;;62.72;34.55;;;0.20;99.90;;;;;;2096419;28;20016;-68
2021/12/27 22:50:54;;;;;;;66.53;35.33;;;0.20;99.90;;;;;;2103269;28;20047;-68
2021/12/27 22:51:56;;;;;;;67.38;35.55;;;0.20;99.90;;;;;;2095997;28;20665;-69
2021/12/27 22:52:58;;;;;;;62.03;34.90;;;0.30;99.90;;;;;;2096198;28;20543;-69
2021/12/27 22:53:58;;;;;;;62.60;34.50;;;0.20;99.90;;;;;;2088045;28;20040;-68
2021/12/27 22:54:59;;;;;;;59.75;33.20;;;0.30;99.90;;;;;;2104040;28;20034;-69
2021/12/27 22:56:00;;;;;;;62.35;34.83;;;0.20;99.90;;;;;;2097153;28;20033;-69
2021/12/27 22:57:01;;;;;;;65.85;35.03;;;0.20;99.90;;;;;;2104819;28;20113;-69
2021/12/27 22:58:03;;;;;;;63.72;34.83;;;0.20;99.90;;;;;;2096968;28;20480;-69
2021/12/27 22:59:04;;;;;;;63.28;34.40;;;0.20;99.90;;;;;;2095863;28;20035;-69
2021/12/27 23:00:14;;;;;;;66.60;35.35;;;0.20;99.90;;;;;;2088791;28;20531;-69
2021/12/27 23:01:15;;;;;;;66.05;35.85;;;0.10;99.90;;;;;;2086495;28;20029;-69
2021/12/27 23:02:22;;;;;;;65.25;34.75;;;0.20;99.90;;;;;;2079965;28;20032;-69
2021/12/27 23:03:23;;;;;;;65.43;35.72;;;0.20;99.90;;;;;;2088508;28;20025;-69
2021/12/27 23:04:24;;;;;;;63.90;34.03;;;0.20;99.90;;;;;;2091414;28;20032;-71
2021/12/27 23:05:26;;;;;;;66.93;36.10;;;0.20;99.90;;;;;;2101515;28;20045;-67
2021/12/27 23:06:27;;;;;;;65.13;35.45;;;0.20;99.90;;;;;;2105723;28;20012;-68
2021/12/27 23:07:27;;;;;;;63.88;34.35;;;0.20;99.90;;;;;;2100112;28;20016;-69
2021/12/27 23:08:30;;;;;;;62.88;34.92;;;0.20;99.90;;;;;;2100493;28;20020;-67
2021/12/27 23:09:34;;;;;;;62.30;34.08;;;0.20;99.90;;;;;;2105853;28;20403;-69
2021/12/27 23:10:35;;;;;;;60.30;33.85;;;0.20;99.90;;;;;;2087911;28;20073;-69
2021/12/27 23:11:36;;;;;;;60.47;34.40;;;0.20;99.90;;;;;;2092833;28;20029;-70
2021/12/27 23:12:37;;;;;;;63.53;35.70;;;0.20;99.90;;;;;;2084142;28;20152;-73
2021/12/27 23:13:38;;;;;;;62.42;34.22;;;0.20;99.90;;;;;;2080621;28;20489;-70
2021/12/27 23:14:40;;;;;;;62.78;34.22;;;0.20;99.90;;;;;;2091626;28;20032;-69
2021/12/27 23:15:42;;;;;;;62.55;34.50;;;0.20;99.90;;;;;;2080767;28;20040;-68
2021/12/27 23:16:42;;;;;;;65.00;34.85;;;0.20;99.90;;;;;;2088526;28;20687;-68
2021/12/27 23:17:43;;;;;;;63.63;34.75;;;0.20;99.90;;;;;;2095699;28;20031;-67
2021/12/27 23:18:44;;;;;;;64.57;34.60;;;0.20;99.90;;;;;;2079867;28;20566;-69
2021/12/27 23:19:45;;;;;;;61.90;34.15;;;0.20;99.90;;;;;;2079843;28;20152;-68
2021/12/27 23:20:46;;;;;;;63.92;35.75;;;0.20;99.90;;;;;;2096882;28;20066;-69
2021/12/27 23:21:47;;;;;;;64.40;35.10;;;0.20;99.90;;;;;;2096490;28;20046;-67
2021/12/27 23:22:48;;;;;;;64.18;35.47;;;0.20;99.90;;;;;;2088499;28;20017;-69
2021/12/27 23:23:49;;;;;;;61.83;34.97;;;0.20;99.90;;;;;;2088584;28;20631;-69
2021/12/27 23:24:50;;;;;;;60.33;34.42;;;0.20;99.90;;;;;;2080303;28;20025;-66
2021/12/27 23:25:53;;;;;;;67.10;35.55;;;0.20;99.90;;;;;;2092369;28;20033;-68
2021/12/27 23:26:54;;;;;;;62.72;35.58;;;0.20;99.90;;;;;;2098307;28;20017;-67
2021/12/27 23:27:59;;;;;;;63.67;34.75;;;0.20;99.90;;;;;;2088041;28;20410;-70
2021/12/27 23:29:00;;;;;;;64.45;34.63;;;0.20;99.90;;;;;;2097290;28;20048;-69
2021/12/27 23:30:02;;;;;;;66.43;35.88;;;0.10;99.90;;;;;;2088529;28;20704;-66
2021/12/27 23:31:03;;;;;;;63.35;35.80;;;0.10;99.90;;;;;;2080322;28;20033;-68
2021/12/27 23:32:04;;;;;;;65.70;35.58;;;0.10;99.90;;;;;;2080033;28;20084;-68
2021/12/27 23:33:14;;;;;;;65.97;35.50;;;0.20;99.90;;;;;;2097177;28;20031;-69
2021/12/27 23:34:15;;;;;;;;;;;0.20;99.90;;;;;;2088702;28;20492;-68
2021/12/27 23:35:19;;;;;;;63.05;33.45;;;0.20;99.90;;;;;;2080314;28;19913;-68
2021/12/27 23:36:22;;;;;;;65.80;35.13;;;0.20;99.90;;;;;;2088897;28;20112;-67
2021/12/27 23:37:23;;;;;;;67.82;35.13;;;0.20;99.90;;;;;;2095821;28;20043;-68
2021/12/27 23:38:27;;;;;;;66.35;34.95;;;0.20;99.90;;;;;;2080234;28;20030;-68
2021/12/27 23:39:28;;;;;;;66.88;35.38;;;0.20;99.90;;;;;;2088099;28;20048;-67
2021/12/27 23:40:28;;;;;;;67.75;36.13;;;0.20;99.90;;;;;;2080527;28;20117;-69
2021/12/27 23:41:29;;;;;;;65.93;35.83;;;0.20;99.90;;;;;;2096872;28;20050;-67
2021/12/27 23:42:30;;;;;;;65.53;35.35;;;0.20;99.90;;;;;;2097196;28;20068;-70
2021/12/27 23:43:32;;;;;;;67.47;36.67;;;0.20;99.90;;;;;;2097533;28;20039;-69
2021/12/27 23:44:33;;;;;;;68.03;35.63;;;0.20;99.90;;;;;;2097411;28;20029;-67
2021/12/27 23:45:36;;;;;;;63.95;35.47;;;0.20;99.90;;;;;;2097188;28;20035;-67
2021/12/27 23:46:38;;;;;;;64.45;35.28;;;0.20;99.90;;;;;;2091129;28;20025;-68
2021/12/27 23:47:41;;;;;;;64.68;35.80;;;0.20;99.90;;;;;;2084463;28;20030;-68
2021/12/27 23:48:51;;;;;;;68.47;35.67;;;0.20;99.90;;;;;;2080394;28;20030;-69
2021/12/27 23:50:00;;;;;;;65.95;35.70;;;0.20;99.90;;;;;;2087115;28;20037;-69
2021/12/27 23:51:07;;;;;;;68.60;35.83;;;0.20;99.90;;;;;;2086058;28;20065;-68
2021/12/27 23:52:16;;;;;;;70.13;35.83;;;0.20;99.90;;;;;;2102177;28;20036;-67
2021/12/27 23:53:17;;;;;;;72.68;36.80;;;0.20;99.90;;;;;;2093040;28;20017;-70
2021/12/27 23:54:27;;;;;;;69.55;36.75;;;0.30;99.90;;;;;;2092463;28;20045;-69
2021/12/27 23:55:29;;;;;;;;;;;0.20;99.90;;;;;;2100757;28;20016;-70
2021/12/27 23:56:32;;;;;;;67.90;35.28;;;0.20;99.90;;;;;;2098623;28;19908;-68
2021/12/27 23:57:35;;;;;;;69.70;37.55;;;0.20;99.90;;;;;;2091998;28;20021;-68
2021/12/27 23:58:42;;;;;;;68.05;35.97;;;0.30;99.90;;;;;;2082748;28;20025;-69
2021/12/27 23:59:43;;;;;;;70.00;37.15;;;0.30;99.90;;;;;;2090645;28;20076;-69
